sensor_id;sensor_type;location;lat;lon;timestamp;P1;durP1;ratioP1;P2;durP2;ratioP2
5549;SDS011;2798;42.716;23.256;2022-12-18T00:00:25;6.47;;;5.80;;
5549;SDS011;2798;42.716;23.256;2022-12-18T00:02:51;7.07;;;4.90;;
5549;SDS011;2798;42.716;23.256;2022-12-18T00:05:16;6.67;;;5.23;;
5549;SDS011;2798;42.716;23.256;2022-12-18T00:07:41;6.20;;;4.90;;
5549;SDS011;2798;42.716;23.256;2022-12-18T00:10:06;5.80;;;4.77;;
5549;SDS011;2798;42.716;23.256;2022-12-18T00:12:32;8.20;;;5.77;;
5549;SDS011;2798;42.716;23.256;2022-12-18T00:14:57;7.40;;;5.03;;
5549;SDS011;2798;42.716;23.256;2022-12-18T00:17:22;5.80;;;5.20;;
5549;SDS011;2798;42.716;23.256;2022-12-18T00:19:48;8.70;;;6.10;;
5549;SDS011;2798;42.716;23.256;2022-12-18T00:22:13;7.47;;;5.70;;
5549;SDS011;2798;42.716;23.256;2022-12-18T00:24:38;7.70;;;5.60;;
5549;SDS011;2798;42.716;23.256;2022-12-18T00:27:03;7.07;;;5.30;;
5549;SDS011;2798;42.716;23.256;2022-12-18T00:29:29;6.17;;;5.17;;
5549;SDS011;2798;42.716;23.256;2022-12-18T00:31:54;6.50;;;5.57;;
5549;SDS011;2798;42.716;23.256;2022-12-18T00:34:19;7.17;;;5.50;;
5549;SDS011;2798;42.716;23.256;2022-12-18T00:36:46;7.47;;;5.30;;
5549;SDS011;2798;42.716;23.256;2022-12-18T00:39:12;8.77;;;5.43;;
5549;SDS011;2798;42.716;23.256;2022-12-18T00:41:37;6.83;;;5.37;;
5549;SDS011;2798;42.716;23.256;2022-12-18T00:44:21;5.77;;;5.17;;
5549;SDS011;2798;42.716;23.256;2022-12-18T00:46:47;6.13;;;5.07;;
5549;SDS011;2798;42.716;23.256;2022-12-18T00:49:12;7.00;;;5.87;;
5549;SDS011;2798;42.716;23.256;2022-12-18T00:51:37;6.30;;;5.43;;
5549;SDS011;2798;42.716;23.256;2022-12-18T00:54:03;5.43;;;4.90;;
5549;SDS011;2798;42.716;23.256;2022-12-18T00:56:28;7.70;;;6.00;;
5549;SDS011;2798;42.716;23.256;2022-12-18T00:58:53;6.70;;;5.30;;
5549;SDS011;2798;42.716;23.256;2022-12-18T01:01:18;6.37;;;5.20;;
5549;SDS011;2798;42.716;23.256;2022-12-18T01:03:44;7.20;;;5.43;;
5549;SDS011;2798;42.716;23.256;2022-12-18T01:06:13;7.47;;;5.30;;
5549;SDS011;2798;42.716;23.256;2022-12-18T01:08:38;7.70;;;5.40;;
5549;SDS011;2798;42.716;23.256;2022-12-18T01:11:08;6.33;;;5.50;;
5549;SDS011;2798;42.716;23.256;2022-12-18T01:13:33;8.20;;;5.73;;
5549;SDS011;2798;42.716;23.256;2022-12-18T01:15:58;7.27;;;5.90;;
5549;SDS011;2798;42.716;23.256;2022-12-18T01:18:23;6.33;;;5.70;;
5549;SDS011;2798;42.716;23.256;2022-12-18T01:20:49;7.40;;;5.53;;
5549;SDS011;2798;42.716;23.256;2022-12-18T01:23:14;6.70;;;6.00;;
5549;SDS011;2798;42.716;23.256;2022-12-18T01:25:39;9.93;;;6.07;;
5549;SDS011;2798;42.716;23.256;2022-12-18T01:28:05;7.17;;;6.17;;
5549;SDS011;2798;42.716;23.256;2022-12-18T01:30:31;7.73;;;6.00;;
5549;SDS011;2798;42.716;23.256;2022-12-18T01:32:56;8.37;;;5.80;;
5549;SDS011;2798;42.716;23.256;2022-12-18T01:35:21;7.37;;;6.57;;
5549;SDS011;2798;42.716;23.256;2022-12-18T01:37:47;8.83;;;6.43;;
5549;SDS011;2798;42.716;23.256;2022-12-18T01:40:12;8.80;;;6.10;;
5549;SDS011;2798;42.716;23.256;2022-12-18T01:42:37;7.30;;;5.60;;
5549;SDS011;2798;42.716;23.256;2022-12-18T01:50:02;8.20;;;6.13;;
5549;SDS011;2798;42.716;23.256;2022-12-18T01:52:28;7.97;;;6.10;;
5549;SDS011;2798;42.716;23.256;2022-12-18T01:54:55;7.90;;;6.00;;
5549;SDS011;2798;42.716;23.256;2022-12-18T01:57:21;7.07;;;5.73;;
5549;SDS011;2798;42.716;23.256;2022-12-18T01:59:47;10.90;;;5.87;;
5549;SDS011;2798;42.716;23.256;2022-12-18T02:02:15;8.80;;;6.20;;
5549;SDS011;2798;42.716;23.256;2022-12-18T02:04:40;6.13;;;5.10;;
5549;SDS011;2798;42.716;23.256;2022-12-18T02:09:35;6.77;;;5.20;;
5549;SDS011;2798;42.716;23.256;2022-12-18T02:12:10;5.93;;;5.00;;
5549;SDS011;2798;42.716;23.256;2022-12-18T02:14:44;7.03;;;5.20;;
5549;SDS011;2798;42.716;23.256;2022-12-18T02:22:13;6.50;;;5.20;;
5549;SDS011;2798;42.716;23.256;2022-12-18T02:27:33;8.07;;;6.10;;
5549;SDS011;2798;42.716;23.256;2022-12-18T02:29:59;5.80;;;4.57;;
5549;SDS011;2798;42.716;23.256;2022-12-18T02:32:34;7.40;;;5.73;;
5549;SDS011;2798;42.716;23.256;2022-12-18T02:35:01;7.20;;;5.07;;
5549;SDS011;2798;42.716;23.256;2022-12-18T02:37:27;6.47;;;5.00;;
5549;SDS011;2798;42.716;23.256;2022-12-18T02:39:53;9.00;;;5.87;;
5549;SDS011;2798;42.716;23.256;2022-12-18T02:42:19;5.50;;;4.67;;
5549;SDS011;2798;42.716;23.256;2022-12-18T02:44:46;7.97;;;5.20;;
5549;SDS011;2798;42.716;23.256;2022-12-18T02:47:12;6.17;;;5.10;;
5549;SDS011;2798;42.716;23.256;2022-12-18T02:59:54;6.10;;;4.90;;
5549;SDS011;2798;42.716;23.256;2022-12-18T03:02:36;7.87;;;5.47;;
5549;SDS011;2798;42.716;23.256;2022-12-18T03:05:24;7.63;;;5.53;;
5549;SDS011;2798;42.716;23.256;2022-12-18T03:07:53;6.00;;;5.17;;
5549;SDS011;2798;42.716;23.256;2022-12-18T03:10:22;6.43;;;4.80;;
5549;SDS011;2798;42.716;23.256;2022-12-18T03:12:52;7.90;;;5.03;;
5549;SDS011;2798;42.716;23.256;2022-12-18T03:15:20;7.30;;;5.00;;
5549;SDS011;2798;42.716;23.256;2022-12-18T03:17:52;6.03;;;4.83;;
5549;SDS011;2798;42.716;23.256;2022-12-18T03:20:21;6.63;;;5.33;;
5549;SDS011;2798;42.716;23.256;2022-12-18T03:22:48;5.97;;;4.90;;
5549;SDS011;2798;42.716;23.256;2022-12-18T03:25:15;8.53;;;5.50;;
5549;SDS011;2798;42.716;23.256;2022-12-18T03:27:43;6.10;;;4.93;;
5549;SDS011;2798;42.716;23.256;2022-12-18T03:30:10;6.57;;;5.33;;
5549;SDS011;2798;42.716;23.256;2022-12-18T03:32:42;5.80;;;5.20;;
5549;SDS011;2798;42.716;23.256;2022-12-18T03:35:10;8.10;;;5.47;;
5549;SDS011;2798;42.716;23.256;2022-12-18T03:37:36;8.20;;;5.57;;
5549;SDS011;2798;42.716;23.256;2022-12-18T03:40:02;6.97;;;5.27;;
5549;SDS011;2798;42.716;23.256;2022-12-18T03:42:39;8.70;;;5.80;;
5549;SDS011;2798;42.716;23.256;2022-12-18T03:45:12;6.50;;;5.03;;
5549;SDS011;2798;42.716;23.256;2022-12-18T03:50:26;8.07;;;5.67;;
5549;SDS011;2798;42.716;23.256;2022-12-18T03:53:00;7.90;;;5.10;;
5549;SDS011;2798;42.716;23.256;2022-12-18T03:55:30;6.50;;;5.20;;
5549;SDS011;2798;42.716;23.256;2022-12-18T03:57:58;6.57;;;5.40;;
5549;SDS011;2798;42.716;23.256;2022-12-18T04:00:24;6.27;;;5.13;;
5549;SDS011;2798;42.716;23.256;2022-12-18T04:02:53;8.23;;;6.33;;
5549;SDS011;2798;42.716;23.256;2022-12-18T04:05:19;6.97;;;5.93;;
5549;SDS011;2798;42.716;23.256;2022-12-18T04:07:45;8.27;;;5.90;;
5549;SDS011;2798;42.716;23.256;2022-12-18T04:10:12;8.00;;;6.43;;
5549;SDS011;2798;42.716;23.256;2022-12-18T04:12:37;7.50;;;5.80;;
5549;SDS011;2798;42.716;23.256;2022-12-18T04:15:03;7.73;;;6.27;;
5549;SDS011;2798;42.716;23.256;2022-12-18T04:17:28;8.90;;;6.23;;
5549;SDS011;2798;42.716;23.256;2022-12-18T04:19:53;8.80;;;6.30;;
5549;SDS011;2798;42.716;23.256;2022-12-18T04:22:19;8.93;;;6.30;;
5549;SDS011;2798;42.716;23.256;2022-12-18T04:24:44;9.50;;;6.53;;
5549;SDS011;2798;42.716;23.256;2022-12-18T04:27:09;8.90;;;6.30;;
5549;SDS011;2798;42.716;23.256;2022-12-18T04:29:34;8.63;;;7.00;;
5549;SDS011;2798;42.716;23.256;2022-12-18T04:32:00;9.93;;;6.83;;
5549;SDS011;2798;42.716;23.256;2022-12-18T04:34:25;9.43;;;7.13;;
5549;SDS011;2798;42.716;23.256;2022-12-18T04:36:50;10.87;;;7.70;;
5549;SDS011;2798;42.716;23.256;2022-12-18T04:39:16;14.20;;;8.13;;
5549;SDS011;2798;42.716;23.256;2022-12-18T04:41:42;12.07;;;7.90;;
5549;SDS011;2798;42.716;23.256;2022-12-18T04:44:07;12.07;;;8.20;;
5549;SDS011;2798;42.716;23.256;2022-12-18T04:46:33;10.40;;;7.83;;
5549;SDS011;2798;42.716;23.256;2022-12-18T04:48:58;10.60;;;7.57;;
5549;SDS011;2798;42.716;23.256;2022-12-18T04:51:23;11.17;;;8.10;;
5549;SDS011;2798;42.716;23.256;2022-12-18T04:53:48;11.43;;;7.80;;
5549;SDS011;2798;42.716;23.256;2022-12-18T04:56:14;11.77;;;8.40;;
5549;SDS011;2798;42.716;23.256;2022-12-18T04:58:40;11.40;;;8.17;;
5549;SDS011;2798;42.716;23.256;2022-12-18T05:01:06;10.30;;;7.63;;
5549;SDS011;2798;42.716;23.256;2022-12-18T05:03:32;11.37;;;8.30;;
5549;SDS011;2798;42.716;23.256;2022-12-18T05:05:58;14.30;;;9.60;;
5549;SDS011;2798;42.716;23.256;2022-12-18T05:08:23;14.60;;;9.20;;
5549;SDS011;2798;42.716;23.256;2022-12-18T05:10:48;13.00;;;8.10;;
5549;SDS011;2798;42.716;23.256;2022-12-18T05:13:13;12.80;;;9.13;;
5549;SDS011;2798;42.716;23.256;2022-12-18T05:15:39;12.63;;;8.67;;
5549;SDS011;2798;42.716;23.256;2022-12-18T05:18:04;13.60;;;8.70;;
5549;SDS011;2798;42.716;23.256;2022-12-18T05:20:30;13.10;;;9.17;;
5549;SDS011;2798;42.716;23.256;2022-12-18T05:22:55;12.93;;;9.40;;
5549;SDS011;2798;42.716;23.256;2022-12-18T05:25:20;14.83;;;9.97;;
5549;SDS011;2798;42.716;23.256;2022-12-18T05:27:46;13.67;;;8.83;;
5549;SDS011;2798;42.716;23.256;2022-12-18T05:30:12;12.13;;;8.73;;
5549;SDS011;2798;42.716;23.256;2022-12-18T05:32:37;10.67;;;8.27;;
5549;SDS011;2798;42.716;23.256;2022-12-18T05:35:03;15.40;;;9.80;;
5549;SDS011;2798;42.716;23.256;2022-12-18T05:37:28;11.87;;;8.50;;
5549;SDS011;2798;42.716;23.256;2022-12-18T05:39:54;13.70;;;8.90;;
5549;SDS011;2798;42.716;23.256;2022-12-18T05:42:19;14.10;;;8.90;;
5549;SDS011;2798;42.716;23.256;2022-12-18T05:44:44;15.93;;;10.23;;
5549;SDS011;2798;42.716;23.256;2022-12-18T05:47:10;15.30;;;10.10;;
5549;SDS011;2798;42.716;23.256;2022-12-18T05:49:35;11.60;;;9.03;;
5549;SDS011;2798;42.716;23.256;2022-12-18T05:52:00;13.73;;;9.07;;
5549;SDS011;2798;42.716;23.256;2022-12-18T05:54:28;14.50;;;9.47;;
5549;SDS011;2798;42.716;23.256;2022-12-18T05:56:54;15.47;;;9.40;;
5549;SDS011;2798;42.716;23.256;2022-12-18T05:59:19;16.17;;;9.87;;
5549;SDS011;2798;42.716;23.256;2022-12-18T06:01:45;14.20;;;10.57;;
5549;SDS011;2798;42.716;23.256;2022-12-18T06:04:10;19.70;;;10.60;;
5549;SDS011;2798;42.716;23.256;2022-12-18T06:06:35;16.20;;;10.33;;
5549;SDS011;2798;42.716;23.256;2022-12-18T06:09:01;15.40;;;10.27;;
5549;SDS011;2798;42.716;23.256;2022-12-18T06:11:33;16.53;;;11.03;;
5549;SDS011;2798;42.716;23.256;2022-12-18T06:13:58;16.00;;;10.40;;
5549;SDS011;2798;42.716;23.256;2022-12-18T06:16:23;15.00;;;10.40;;
5549;SDS011;2798;42.716;23.256;2022-12-18T06:18:49;15.00;;;9.90;;
5549;SDS011;2798;42.716;23.256;2022-12-18T06:21:14;12.10;;;9.17;;
5549;SDS011;2798;42.716;23.256;2022-12-18T06:23:39;15.20;;;9.57;;
5549;SDS011;2798;42.716;23.256;2022-12-18T06:26:05;12.77;;;9.37;;
5549;SDS011;2798;42.716;23.256;2022-12-18T06:28:30;14.17;;;9.90;;
5549;SDS011;2798;42.716;23.256;2022-12-18T06:30:56;14.30;;;10.03;;
5549;SDS011;2798;42.716;23.256;2022-12-18T06:33:21;14.30;;;9.23;;
5549;SDS011;2798;42.716;23.256;2022-12-18T06:35:46;15.63;;;10.00;;
5549;SDS011;2798;42.716;23.256;2022-12-18T06:38:11;14.50;;;10.00;;
5549;SDS011;2798;42.716;23.256;2022-12-18T06:40:37;13.17;;;9.00;;
5549;SDS011;2798;42.716;23.256;2022-12-18T06:43:04;14.77;;;9.77;;
5549;SDS011;2798;42.716;23.256;2022-12-18T06:45:29;16.50;;;10.20;;
5549;SDS011;2798;42.716;23.256;2022-12-18T06:47:54;16.80;;;9.83;;
5549;SDS011;2798;42.716;23.256;2022-12-18T06:50:19;12.73;;;8.90;;
5549;SDS011;2798;42.716;23.256;2022-12-18T06:52:44;13.60;;;9.23;;
5549;SDS011;2798;42.716;23.256;2022-12-18T06:55:10;11.17;;;8.00;;
5549;SDS011;2798;42.716;23.256;2022-12-18T06:57:36;14.20;;;9.40;;
5549;SDS011;2798;42.716;23.256;2022-12-18T07:00:02;12.67;;;9.30;;
5549;SDS011;2798;42.716;23.256;2022-12-18T07:02:27;14.03;;;10.00;;
5549;SDS011;2798;42.716;23.256;2022-12-18T07:04:53;14.60;;;9.60;;
5549;SDS011;2798;42.716;23.256;2022-12-18T07:07:18;15.07;;;9.90;;
5549;SDS011;2798;42.716;23.256;2022-12-18T07:09:43;14.07;;;9.47;;
5549;SDS011;2798;42.716;23.256;2022-12-18T07:12:08;14.87;;;10.60;;
5549;SDS011;2798;42.716;23.256;2022-12-18T07:14:34;15.70;;;10.53;;
5549;SDS011;2798;42.716;23.256;2022-12-18T07:16:59;14.70;;;10.03;;
5549;SDS011;2798;42.716;23.256;2022-12-18T07:19:24;14.30;;;10.23;;
5549;SDS011;2798;42.716;23.256;2022-12-18T07:21:50;15.50;;;10.73;;
5549;SDS011;2798;42.716;23.256;2022-12-18T07:24:15;15.07;;;10.50;;
5549;SDS011;2798;42.716;23.256;2022-12-18T07:26:41;20.03;;;11.90;;
5549;SDS011;2798;42.716;23.256;2022-12-18T07:29:06;17.97;;;12.20;;
5549;SDS011;2798;42.716;23.256;2022-12-18T07:31:31;19.73;;;11.93;;
5549;SDS011;2798;42.716;23.256;2022-12-18T07:33:57;17.90;;;11.80;;
5549;SDS011;2798;42.716;23.256;2022-12-18T07:36:22;16.83;;;10.80;;
5549;SDS011;2798;42.716;23.256;2022-12-18T07:38:47;17.13;;;11.40;;
5549;SDS011;2798;42.716;23.256;2022-12-18T07:41:13;17.50;;;12.30;;
5549;SDS011;2798;42.716;23.256;2022-12-18T07:43:39;20.47;;;12.20;;
5549;SDS011;2798;42.716;23.256;2022-12-18T07:46:05;21.23;;;13.10;;
5549;SDS011;2798;42.716;23.256;2022-12-18T07:48:30;18.37;;;12.17;;
5549;SDS011;2798;42.716;23.256;2022-12-18T07:50:59;20.17;;;12.57;;
5549;SDS011;2798;42.716;23.256;2022-12-18T07:53:25;18.90;;;12.47;;
5549;SDS011;2798;42.716;23.256;2022-12-18T07:55:54;18.07;;;11.53;;
5549;SDS011;2798;42.716;23.256;2022-12-18T07:58:20;19.83;;;13.43;;
5549;SDS011;2798;42.716;23.256;2022-12-18T08:00:45;18.80;;;13.57;;
5549;SDS011;2798;42.716;23.256;2022-12-18T08:03:10;18.60;;;11.93;;
5549;SDS011;2798;42.716;23.256;2022-12-18T08:05:37;20.60;;;12.17;;
5549;SDS011;2798;42.716;23.256;2022-12-18T08:08:02;20.07;;;12.50;;
5549;SDS011;2798;42.716;23.256;2022-12-18T08:10:27;20.67;;;13.37;;
5549;SDS011;2798;42.716;23.256;2022-12-18T08:12:52;19.93;;;12.23;;
5549;SDS011;2798;42.716;23.256;2022-12-18T08:15:18;18.43;;;12.07;;
5549;SDS011;2798;42.716;23.256;2022-12-18T08:17:43;19.47;;;12.57;;
5549;SDS011;2798;42.716;23.256;2022-12-18T08:20:08;18.37;;;11.53;;
5549;SDS011;2798;42.716;23.256;2022-12-18T08:22:34;17.33;;;12.00;;
5549;SDS011;2798;42.716;23.256;2022-12-18T08:25:00;17.60;;;11.53;;
5549;SDS011;2798;42.716;23.256;2022-12-18T08:27:25;16.60;;;10.50;;
5549;SDS011;2798;42.716;23.256;2022-12-18T08:29:51;19.57;;;11.93;;
5549;SDS011;2798;42.716;23.256;2022-12-18T08:32:16;22.77;;;12.53;;
5549;SDS011;2798;42.716;23.256;2022-12-18T08:34:41;21.80;;;13.00;;
5549;SDS011;2798;42.716;23.256;2022-12-18T08:37:06;18.57;;;11.77;;
5549;SDS011;2798;42.716;23.256;2022-12-18T08:39:32;19.07;;;12.63;;
5549;SDS011;2798;42.716;23.256;2022-12-18T08:41:57;17.10;;;11.20;;
5549;SDS011;2798;42.716;23.256;2022-12-18T08:44:41;17.23;;;10.97;;
5549;SDS011;2798;42.716;23.256;2022-12-18T08:47:06;19.33;;;11.30;;
5549;SDS011;2798;42.716;23.256;2022-12-18T08:49:32;18.30;;;11.27;;
5549;SDS011;2798;42.716;23.256;2022-12-18T08:51:57;18.37;;;10.73;;
5549;SDS011;2798;42.716;23.256;2022-12-18T08:54:23;19.43;;;11.47;;
5549;SDS011;2798;42.716;23.256;2022-12-18T08:56:48;18.23;;;10.63;;
5549;SDS011;2798;42.716;23.256;2022-12-18T08:59:15;19.17;;;11.83;;
5549;SDS011;2798;42.716;23.256;2022-12-18T09:01:40;17.07;;;10.80;;
5549;SDS011;2798;42.716;23.256;2022-12-18T09:04:05;16.83;;;11.23;;
5549;SDS011;2798;42.716;23.256;2022-12-18T09:06:30;17.73;;;11.83;;
5549;SDS011;2798;42.716;23.256;2022-12-18T09:08:56;21.10;;;11.63;;
5549;SDS011;2798;42.716;23.256;2022-12-18T09:11:22;15.70;;;10.40;;
5549;SDS011;2798;42.716;23.256;2022-12-18T09:13:48;16.33;;;11.10;;
5549;SDS011;2798;42.716;23.256;2022-12-18T09:16:13;15.90;;;9.93;;
5549;SDS011;2798;42.716;23.256;2022-12-18T09:18:39;21.00;;;9.80;;
5549;SDS011;2798;42.716;23.256;2022-12-18T09:21:07;16.13;;;10.23;;
5549;SDS011;2798;42.716;23.256;2022-12-18T09:23:33;16.33;;;10.03;;
5549;SDS011;2798;42.716;23.256;2022-12-18T09:25:58;15.33;;;10.20;;
5549;SDS011;2798;42.716;23.256;2022-12-18T09:28:24;14.83;;;9.10;;
5549;SDS011;2798;42.716;23.256;2022-12-18T09:30:49;14.87;;;9.33;;
5549;SDS011;2798;42.716;23.256;2022-12-18T09:33:15;13.67;;;9.50;;
5549;SDS011;2798;42.716;23.256;2022-12-18T09:35:41;16.53;;;10.63;;
5549;SDS011;2798;42.716;23.256;2022-12-18T09:38:07;14.37;;;9.40;;
5549;SDS011;2798;42.716;23.256;2022-12-18T09:40:34;16.70;;;10.60;;
5549;SDS011;2798;42.716;23.256;2022-12-18T09:43:02;16.03;;;10.83;;
5549;SDS011;2798;42.716;23.256;2022-12-18T09:45:28;17.87;;;10.90;;
5549;SDS011;2798;42.716;23.256;2022-12-18T09:47:55;17.57;;;9.90;;
5549;SDS011;2798;42.716;23.256;2022-12-18T09:50:27;17.73;;;9.97;;
5549;SDS011;2798;42.716;23.256;2022-12-18T09:52:55;13.10;;;9.57;;
5549;SDS011;2798;42.716;23.256;2022-12-18T09:57:55;16.37;;;10.13;;
5549;SDS011;2798;42.716;23.256;2022-12-18T10:00:22;15.43;;;10.60;;
5549;SDS011;2798;42.716;23.256;2022-12-18T10:02:48;16.67;;;10.17;;
5549;SDS011;2798;42.716;23.256;2022-12-18T10:05:17;17.07;;;10.53;;
5549;SDS011;2798;42.716;23.256;2022-12-18T10:10:38;13.90;;;9.40;;
5549;SDS011;2798;42.716;23.256;2022-12-18T10:13:24;15.60;;;9.03;;
5549;SDS011;2798;42.716;23.256;2022-12-18T10:21:01;16.17;;;9.70;;
5549;SDS011;2798;42.716;23.256;2022-12-18T10:23:33;14.33;;;9.70;;
5549;SDS011;2798;42.716;23.256;2022-12-18T10:26:01;16.50;;;9.80;;
5549;SDS011;2798;42.716;23.256;2022-12-18T10:28:27;15.90;;;9.00;;
5549;SDS011;2798;42.716;23.256;2022-12-18T10:30:54;13.70;;;9.90;;
5549;SDS011;2798;42.716;23.256;2022-12-18T10:33:20;15.77;;;10.33;;
5549;SDS011;2798;42.716;23.256;2022-12-18T10:35:47;19.27;;;11.43;;
5549;SDS011;2798;42.716;23.256;2022-12-18T10:40:58;14.20;;;9.90;;
5549;SDS011;2798;42.716;23.256;2022-12-18T10:43:28;16.37;;;10.33;;
5549;SDS011;2798;42.716;23.256;2022-12-18T10:46:04;14.30;;;9.10;;
5549;SDS011;2798;42.716;23.256;2022-12-18T10:48:31;15.93;;;9.47;;
5549;SDS011;2798;42.716;23.256;2022-12-18T10:50:57;15.33;;;10.53;;
5549;SDS011;2798;42.716;23.256;2022-12-18T10:53:23;15.80;;;9.57;;
5549;SDS011;2798;42.716;23.256;2022-12-18T10:55:49;12.60;;;8.70;;
5549;SDS011;2798;42.716;23.256;2022-12-18T11:03:38;13.63;;;9.20;;
5549;SDS011;2798;42.716;23.256;2022-12-18T11:06:05;21.83;;;10.77;;
5549;SDS011;2798;42.716;23.256;2022-12-18T11:08:31;15.60;;;9.53;;
5549;SDS011;2798;42.716;23.256;2022-12-18T11:10:56;14.53;;;9.53;;
5549;SDS011;2798;42.716;23.256;2022-12-18T11:13:24;16.40;;;10.10;;
5549;SDS011;2798;42.716;23.256;2022-12-18T11:15:50;14.37;;;9.20;;
5549;SDS011;2798;42.716;23.256;2022-12-18T11:20:41;15.10;;;9.30;;
5549;SDS011;2798;42.716;23.256;2022-12-18T11:23:10;19.73;;;9.63;;
5549;SDS011;2798;42.716;23.256;2022-12-18T11:25:37;15.07;;;10.20;;
5549;SDS011;2798;42.716;23.256;2022-12-18T11:30:29;15.83;;;9.63;;
5549;SDS011;2798;42.716;23.256;2022-12-18T11:33:03;16.87;;;10.10;;
5549;SDS011;2798;42.716;23.256;2022-12-18T11:37:56;12.00;;;8.20;;
5549;SDS011;2798;42.716;23.256;2022-12-18T11:40:27;15.83;;;8.90;;
5549;SDS011;2798;42.716;23.256;2022-12-18T11:42:58;13.97;;;8.67;;
5549;SDS011;2798;42.716;23.256;2022-12-18T11:45:28;15.93;;;9.77;;
5549;SDS011;2798;42.716;23.256;2022-12-18T11:48:14;17.53;;;10.00;;
5549;SDS011;2798;42.716;23.256;2022-12-18T11:50:53;14.87;;;9.03;;
5549;SDS011;2798;42.716;23.256;2022-12-18T11:53:19;15.00;;;9.00;;
5549;SDS011;2798;42.716;23.256;2022-12-18T11:58:32;15.80;;;9.90;;
5549;SDS011;2798;42.716;23.256;2022-12-18T12:14:23;15.30;;;9.30;;
5549;SDS011;2798;42.716;23.256;2022-12-18T12:22:32;15.60;;;9.83;;
5549;SDS011;2798;42.716;23.256;2022-12-18T12:25:13;13.90;;;9.47;;
5549;SDS011;2798;42.716;23.256;2022-12-18T12:30:21;17.60;;;11.33;;
5549;SDS011;2798;42.716;23.256;2022-12-18T12:38:04;16.17;;;10.80;;
5549;SDS011;2798;42.716;23.256;2022-12-18T12:40:31;15.90;;;11.07;;
5549;SDS011;2798;42.716;23.256;2022-12-18T12:42:58;18.43;;;10.70;;
5549;SDS011;2798;42.716;23.256;2022-12-18T12:48:07;14.10;;;10.40;;
5549;SDS011;2798;42.716;23.256;2022-12-18T12:50:38;16.70;;;10.50;;
5549;SDS011;2798;42.716;23.256;2022-12-18T12:53:07;13.00;;;9.50;;
5549;SDS011;2798;42.716;23.256;2022-12-18T12:55:33;16.27;;;9.83;;
5549;SDS011;2798;42.716;23.256;2022-12-18T13:03:36;14.77;;;9.87;;
5549;SDS011;2798;42.716;23.256;2022-12-18T13:06:12;16.03;;;10.57;;
5549;SDS011;2798;42.716;23.256;2022-12-18T13:08:54;14.63;;;10.13;;
5549;SDS011;2798;42.716;23.256;2022-12-18T13:11:39;14.70;;;9.50;;
5549;SDS011;2798;42.716;23.256;2022-12-18T13:19:39;14.90;;;9.40;;
5549;SDS011;2798;42.716;23.256;2022-12-18T13:22:04;17.67;;;10.33;;
5549;SDS011;2798;42.716;23.256;2022-12-18T13:24:30;16.63;;;10.70;;
5549;SDS011;2798;42.716;23.256;2022-12-18T13:26:55;16.43;;;10.23;;
5549;SDS011;2798;42.716;23.256;2022-12-18T13:32:15;15.70;;;9.90;;
5549;SDS011;2798;42.716;23.256;2022-12-18T13:34:43;15.13;;;9.67;;
5549;SDS011;2798;42.716;23.256;2022-12-18T13:39:53;16.97;;;10.37;;
5549;SDS011;2798;42.716;23.256;2022-12-18T13:45:59;17.70;;;10.70;;
5549;SDS011;2798;42.716;23.256;2022-12-18T13:47:50;15.00;;;10.00;;
5549;SDS011;2798;42.716;23.256;2022-12-18T13:50:22;17.80;;;9.97;;
5549;SDS011;2798;42.716;23.256;2022-12-18T13:52:51;15.23;;;9.70;;
5549;SDS011;2798;42.716;23.256;2022-12-18T13:55:17;15.80;;;8.80;;
5549;SDS011;2798;42.716;23.256;2022-12-18T13:57:43;13.83;;;8.80;;
5549;SDS011;2798;42.716;23.256;2022-12-18T14:00:25;15.30;;;9.37;;
5549;SDS011;2798;42.716;23.256;2022-12-18T14:02:51;14.40;;;8.73;;
5549;SDS011;2798;42.716;23.256;2022-12-18T14:07:51;13.13;;;8.03;;
5549;SDS011;2798;42.716;23.256;2022-12-18T14:10:17;14.20;;;8.60;;
5549;SDS011;2798;42.716;23.256;2022-12-18T14:12:46;12.20;;;8.07;;
5549;SDS011;2798;42.716;23.256;2022-12-18T14:17:58;13.90;;;8.60;;
5549;SDS011;2798;42.716;23.256;2022-12-18T14:20:25;13.50;;;7.90;;
5549;SDS011;2798;42.716;23.256;2022-12-18T14:22:50;15.60;;;9.20;;
5549;SDS011;2798;42.716;23.256;2022-12-18T14:25:18;11.63;;;7.67;;
5549;SDS011;2798;42.716;23.256;2022-12-18T14:27:44;15.50;;;9.00;;
5549;SDS011;2798;42.716;23.256;2022-12-18T14:30:23;14.53;;;8.17;;
5549;SDS011;2798;42.716;23.256;2022-12-18T14:33:02;13.60;;;7.90;;
5549;SDS011;2798;42.716;23.256;2022-12-18T14:35:27;11.23;;;7.50;;
5549;SDS011;2798;42.716;23.256;2022-12-18T14:37:53;14.40;;;8.60;;
5549;SDS011;2798;42.716;23.256;2022-12-18T14:40:18;14.10;;;8.53;;
5549;SDS011;2798;42.716;23.256;2022-12-18T14:42:44;11.00;;;6.97;;
5549;SDS011;2798;42.716;23.256;2022-12-18T14:47:53;10.30;;;6.93;;
5549;SDS011;2798;42.716;23.256;2022-12-18T14:50:18;13.07;;;8.30;;
5549;SDS011;2798;42.716;23.256;2022-12-18T14:52:44;11.60;;;7.57;;
5549;SDS011;2798;42.716;23.256;2022-12-18T14:55:19;11.50;;;6.80;;
5549;SDS011;2798;42.716;23.256;2022-12-18T14:57:45;15.70;;;8.43;;
5549;SDS011;2798;42.716;23.256;2022-12-18T15:00:21;11.43;;;7.47;;
5549;SDS011;2798;42.716;23.256;2022-12-18T15:02:48;10.73;;;6.87;;
5549;SDS011;2798;42.716;23.256;2022-12-18T15:07:47;12.43;;;7.40;;
5549;SDS011;2798;42.716;23.256;2022-12-18T15:15:03;11.60;;;7.03;;
5549;SDS011;2798;42.716;23.256;2022-12-18T15:17:29;13.77;;;7.60;;
5549;SDS011;2798;42.716;23.256;2022-12-18T15:20:01;12.73;;;7.60;;
5549;SDS011;2798;42.716;23.256;2022-12-18T15:24:52;10.73;;;6.97;;
5549;SDS011;2798;42.716;23.256;2022-12-18T15:27:22;13.93;;;7.87;;
5549;SDS011;2798;42.716;23.256;2022-12-18T15:30:16;12.13;;;7.50;;
5549;SDS011;2798;42.716;23.256;2022-12-18T15:32:43;13.10;;;7.97;;
5549;SDS011;2798;42.716;23.256;2022-12-18T15:37:33;12.83;;;7.50;;
5549;SDS011;2798;42.716;23.256;2022-12-18T15:39:58;12.90;;;8.07;;
5549;SDS011;2798;42.716;23.256;2022-12-18T15:42:24;14.50;;;8.57;;
5549;SDS011;2798;42.716;23.256;2022-12-18T15:45:11;16.43;;;8.80;;
5549;SDS011;2798;42.716;23.256;2022-12-18T15:47:36;13.50;;;8.70;;
5549;SDS011;2798;42.716;23.256;2022-12-18T15:50:01;16.27;;;8.50;;
5549;SDS011;2798;42.716;23.256;2022-12-18T15:52:27;15.43;;;8.90;;
5549;SDS011;2798;42.716;23.256;2022-12-18T15:54:53;13.97;;;8.53;;
5549;SDS011;2798;42.716;23.256;2022-12-18T15:57:36;14.70;;;9.00;;
5549;SDS011;2798;42.716;23.256;2022-12-18T16:00:02;13.13;;;8.70;;
5549;SDS011;2798;42.716;23.256;2022-12-18T16:02:27;12.30;;;8.30;;
5549;SDS011;2798;42.716;23.256;2022-12-18T16:04:53;14.87;;;9.40;;
5549;SDS011;2798;42.716;23.256;2022-12-18T16:07:19;14.87;;;8.90;;
5549;SDS011;2798;42.716;23.256;2022-12-18T16:09:44;14.67;;;9.13;;
5549;SDS011;2798;42.716;23.256;2022-12-18T16:12:14;13.97;;;8.40;;
5549;SDS011;2798;42.716;23.256;2022-12-18T16:14:40;12.93;;;8.27;;
5549;SDS011;2798;42.716;23.256;2022-12-18T16:17:08;16.67;;;9.47;;
5549;SDS011;2798;42.716;23.256;2022-12-18T16:19:33;14.33;;;9.30;;
5549;SDS011;2798;42.716;23.256;2022-12-18T16:21:59;21.27;;;9.70;;
5549;SDS011;2798;42.716;23.256;2022-12-18T16:24:25;14.83;;;8.90;;
5549;SDS011;2798;42.716;23.256;2022-12-18T16:26:51;14.07;;;9.00;;
5549;SDS011;2798;42.716;23.256;2022-12-18T16:29:16;18.50;;;10.20;;
5549;SDS011;2798;42.716;23.256;2022-12-18T16:31:42;21.00;;;11.33;;
5549;SDS011;2798;42.716;23.256;2022-12-18T16:34:11;18.13;;;10.23;;
5549;SDS011;2798;42.716;23.256;2022-12-18T16:36:36;15.47;;;9.73;;
5549;SDS011;2798;42.716;23.256;2022-12-18T16:39:01;18.43;;;10.57;;
5549;SDS011;2798;42.716;23.256;2022-12-18T16:41:27;18.70;;;10.67;;
5549;SDS011;2798;42.716;23.256;2022-12-18T16:44:01;16.33;;;11.00;;
5549;SDS011;2798;42.716;23.256;2022-12-18T16:46:26;18.50;;;11.00;;
5549;SDS011;2798;42.716;23.256;2022-12-18T16:48:52;18.70;;;9.90;;
5549;SDS011;2798;42.716;23.256;2022-12-18T16:51:17;13.80;;;8.53;;
5549;SDS011;2798;42.716;23.256;2022-12-18T16:53:42;15.07;;;9.50;;